Terminal Aerodrome Forecast
Issued by NWS

Home | Current Version | Previous Version | Text Only | Print | Product List | Glossary On
Versions: 1 2 3 4 5 6 7 8 9 10 11 12 13 14 15 16 17
338
FTUS46 KLOX 230527
TAFLGB
TAF
KLGB 230527Z 2306/2406 VRB03KT P6SM SKC
     FM230800 VRB03KT 4SM BR OVC006
     FM231100 VRB03KT 2SM BR OVC003
     FM231500 VRB03KT 4SM HZ OVC008
     FM231800 19004KT 6SM BR SKC
     FM232100 29008KT P6SM SKC
     FM240500 VRB03KT P6SM SKC=

USA.gov is the U.S. government's official web portal to all federal, state and local government web resources and services.